<?xml version="1.0" encoding="UTF-8" standalone="no" ?>
<gpx xmlns="http://www.topografix.com/GPX/1/1" xmlns:xsi="http://www.w3.org/2001/XMLSchema-instance" xsi:schemaLocation="http://www.topografix.com/GPX/1/1 http://www.topografix.com/GPX/1/1/gpx.xsd" version="1.1" creator="VisuGPX - https://www.visugpx.com">
  <metadata>
    <name>Autour du Loup</name>
    <desc><![CDATA[Villeneuve/Tourrettes/Courmes/Bramafan/Cipières/Gourdon/Pré du lac/Rouret/Roquefort/Villeneuve]]></desc>
  </metadata>
  <trk>
    <name><![CDATA[Grand tour du Loup]]></name>
    <trkseg>
      <trkpt lat="43.6585" lon="7.11973">
        <ele>13.60000038147</ele>
        <time>2014-04-16T20:17:55.000Z</time>
      </trkpt>
      <trkpt lat="43.66003" lon="7.117">
        <ele>22.39999961853</ele>
        <time>2014-04-16T20:17:56.000Z</time>
      </trkpt>
      <trkpt lat="43.66093" lon="7.11488">
        <ele>26.799999237061</ele>
        <time>2014-04-16T20:17:57.000Z</time>
      </trkpt>
      <trkpt lat="43.66372" lon="7.11338">
        <ele>26.200000762939</ele>
        <time>2014-04-16T20:17:58.000Z</time>
      </trkpt>
      <trkpt lat="43.66526" lon="7.11205">
        <ele>30.60000038147</ele>
        <time>2014-04-16T20:17:59.000Z</time>
      </trkpt>
      <trkpt lat="43.66679" lon="7.1114">
        <ele>22.799999237061</ele>
        <time>2014-04-16T20:18:00.000Z</time>
      </trkpt>
      <trkpt lat="43.66807" lon="7.10973">
        <ele>26.39999961853</ele>
        <time>2014-04-16T20:18:01.000Z</time>
      </trkpt>
      <trkpt lat="43.66942" lon="7.10451">
        <ele>25</ele>
        <time>2014-04-16T20:18:02.000Z</time>
      </trkpt>
      <trkpt lat="43.66873" lon="7.10402">
        <ele>29.200000762939</ele>
        <time>2014-04-16T20:18:03.000Z</time>
      </trkpt>
      <trkpt lat="43.66807" lon="7.10428">
        <ele>36.799999237061</ele>
        <time>2014-04-16T20:18:04.000Z</time>
      </trkpt>
      <trkpt lat="43.667" lon="7.10265">
        <ele>52</ele>
        <time>2014-04-16T20:18:05.000Z</time>
      </trkpt>
      <trkpt lat="43.66661" lon="7.1014">
        <ele>59.400001525879</ele>
        <time>2014-04-16T20:18:06.000Z</time>
      </trkpt>
      <trkpt lat="43.6665" lon="7.09992">
        <ele>73.800003051758</ele>
        <time>2014-04-16T20:18:07.000Z</time>
      </trkpt>
      <trkpt lat="43.66689" lon="7.09754">
        <ele>87.199996948242</ele>
        <time>2014-04-16T20:18:08.000Z</time>
      </trkpt>
      <trkpt lat="43.66743" lon="7.0961">
        <ele>97.599998474121</ele>
        <time>2014-04-16T20:18:09.000Z</time>
      </trkpt>
      <trkpt lat="43.66625" lon="7.09512">
        <ele>95.199996948242</ele>
        <time>2014-04-16T20:18:10.000Z</time>
      </trkpt>
      <trkpt lat="43.66594" lon="7.09434">
        <ele>95.800003051758</ele>
        <time>2014-04-16T20:18:11.000Z</time>
      </trkpt>
      <trkpt lat="43.66619" lon="7.09327">
        <ele>102</ele>
        <time>2014-04-16T20:18:12.000Z</time>
      </trkpt>
      <trkpt lat="43.66706" lon="7.09151">
        <ele>123.59999847412</ele>
        <time>2014-04-16T20:18:13.000Z</time>
      </trkpt>
      <trkpt lat="43.66737" lon="7.0905">
        <ele>128.80000305176</ele>
        <time>2014-04-16T20:18:14.000Z</time>
      </trkpt>
      <trkpt lat="43.66842" lon="7.08964">
        <ele>139</ele>
        <time>2014-04-16T20:18:15.000Z</time>
      </trkpt>
      <trkpt lat="43.66898" lon="7.0881">
        <ele>153.19999694824</ele>
        <time>2014-04-16T20:18:16.000Z</time>
      </trkpt>
      <trkpt lat="43.66869" lon="7.084">
        <ele>182.60000610352</ele>
        <time>2014-04-16T20:18:17.000Z</time>
      </trkpt>
      <trkpt lat="43.66966" lon="7.08462">
        <ele>169.80000305176</ele>
        <time>2014-04-16T20:18:18.000Z</time>
      </trkpt>
      <trkpt lat="43.67182" lon="7.08413">
        <ele>154.39999389648</ele>
        <time>2014-04-16T20:18:19.000Z</time>
      </trkpt>
      <trkpt lat="43.67462" lon="7.08585">
        <ele>116.19999694824</ele>
        <time>2014-04-16T20:18:20.000Z</time>
      </trkpt>
      <trkpt lat="43.67606" lon="7.08537">
        <ele>114.19999694824</ele>
        <time>2014-04-16T20:18:21.000Z</time>
      </trkpt>
      <trkpt lat="43.67772" lon="7.08452">
        <ele>107.80000305176</ele>
        <time>2014-04-16T20:18:22.000Z</time>
      </trkpt>
      <trkpt lat="43.67809" lon="7.08387">
        <ele>111</ele>
        <time>2014-04-16T20:18:23.000Z</time>
      </trkpt>
      <trkpt lat="43.67881" lon="7.08291">
        <ele>86.400001525879</ele>
        <time>2014-04-16T20:18:24.000Z</time>
      </trkpt>
      <trkpt lat="43.67877" lon="7.08087">
        <ele>83.400001525879</ele>
        <time>2014-04-16T20:18:25.000Z</time>
      </trkpt>
      <trkpt lat="43.6794" lon="7.08031">
        <ele>68.400001525879</ele>
        <time>2014-04-16T20:18:26.000Z</time>
      </trkpt>
      <trkpt lat="43.68009" lon="7.0799">
        <ele>50</ele>
        <time>2014-04-16T20:18:27.000Z</time>
      </trkpt>
      <trkpt lat="43.6803" lon="7.07904">
        <ele>48.799999237061</ele>
        <time>2014-04-16T20:18:28.000Z</time>
      </trkpt>
      <trkpt lat="43.68103" lon="7.07748">
        <ele>61.799999237061</ele>
        <time>2014-04-16T20:18:29.000Z</time>
      </trkpt>
      <trkpt lat="43.68224" lon="7.07608">
        <ele>57.599998474121</ele>
        <time>2014-04-16T20:18:30.000Z</time>
      </trkpt>
      <trkpt lat="43.68338" lon="7.07372">
        <ele>55.599998474121</ele>
        <time>2014-04-16T20:18:31.000Z</time>
      </trkpt>
      <trkpt lat="43.6856" lon="7.07201">
        <ele>54</ele>
        <time>2014-04-16T20:18:32.000Z</time>
      </trkpt>
      <trkpt lat="43.68824" lon="7.07269">
        <ele>51.599998474121</ele>
        <time>2014-04-16T20:18:33.000Z</time>
      </trkpt>
      <trkpt lat="43.68942" lon="7.07297">
        <ele>60.799999237061</ele>
        <time>2014-04-16T20:18:34.000Z</time>
      </trkpt>
      <trkpt lat="43.69158" lon="7.074">
        <ele>107.59999847412</ele>
        <time>2014-04-16T20:18:35.000Z</time>
      </trkpt>
      <trkpt lat="43.69091" lon="7.07276">
        <ele>117.19999694824</ele>
        <time>2014-04-16T20:18:36.000Z</time>
      </trkpt>
      <trkpt lat="43.69387" lon="7.07334">
        <ele>181.60000610352</ele>
        <time>2014-04-16T20:18:37.000Z</time>
      </trkpt>
      <trkpt lat="43.69279" lon="7.07194">
        <ele>192</ele>
        <time>2014-04-16T20:18:38.000Z</time>
      </trkpt>
      <trkpt lat="43.69291" lon="7.06997">
        <ele>216.39999389648</ele>
        <time>2014-04-16T20:18:39.000Z</time>
      </trkpt>
      <trkpt lat="43.69258" lon="7.06902">
        <ele>208</ele>
        <time>2014-04-16T20:18:40.000Z</time>
      </trkpt>
      <trkpt lat="43.69355" lon="7.06969">
        <ele>232.80000305176</ele>
        <time>2014-04-16T20:18:41.000Z</time>
      </trkpt>
      <trkpt lat="43.69348" lon="7.06894">
        <ele>224.19999694824</ele>
        <time>2014-04-16T20:18:42.000Z</time>
      </trkpt>
      <trkpt lat="43.6966" lon="7.07003">
        <ele>272.20001220703</ele>
        <time>2014-04-16T20:18:43.000Z</time>
      </trkpt>
      <trkpt lat="43.6976" lon="7.06907">
        <ele>279.39999389648</ele>
        <time>2014-04-16T20:18:44.000Z</time>
      </trkpt>
      <trkpt lat="43.69901" lon="7.07087">
        <ele>305.20001220703</ele>
        <time>2014-04-16T20:18:45.000Z</time>
      </trkpt>
      <trkpt lat="43.6998" lon="7.06997">
        <ele>317.20001220703</ele>
        <time>2014-04-16T20:18:46.000Z</time>
      </trkpt>
      <trkpt lat="43.70012" lon="7.07091">
        <ele>323.60000610352</ele>
        <time>2014-04-16T20:18:47.000Z</time>
      </trkpt>
      <trkpt lat="43.70068" lon="7.07104">
        <ele>331</ele>
        <time>2014-04-16T20:18:48.000Z</time>
      </trkpt>
      <trkpt lat="43.70188" lon="7.07237">
        <ele>329.60000610352</ele>
        <time>2014-04-16T20:18:49.000Z</time>
      </trkpt>
      <trkpt lat="43.70237" lon="7.07201">
        <ele>329.79998779297</ele>
        <time>2014-04-16T20:18:50.000Z</time>
      </trkpt>
      <trkpt lat="43.7032" lon="7.06986">
        <ele>324.39999389648</ele>
        <time>2014-04-16T20:18:51.000Z</time>
      </trkpt>
      <trkpt lat="43.70438" lon="7.06855">
        <ele>297</ele>
        <time>2014-04-16T20:18:52.000Z</time>
      </trkpt>
      <trkpt lat="43.7058" lon="7.06759">
        <ele>278.60000610352</ele>
        <time>2014-04-16T20:18:53.000Z</time>
      </trkpt>
      <trkpt lat="43.70594" lon="7.06705">
        <ele>279.60000610352</ele>
        <time>2014-04-16T20:18:54.000Z</time>
      </trkpt>
      <trkpt lat="43.70684" lon="7.06647">
        <ele>283</ele>
        <time>2014-04-16T20:18:55.000Z</time>
      </trkpt>
      <trkpt lat="43.70884" lon="7.06486">
        <ele>300</ele>
        <time>2014-04-16T20:18:56.000Z</time>
      </trkpt>
      <trkpt lat="43.71173" lon="7.06306">
        <ele>304.20001220703</ele>
        <time>2014-04-16T20:18:57.000Z</time>
      </trkpt>
      <trkpt lat="43.71229" lon="7.0622">
        <ele>317.79998779297</ele>
        <time>2014-04-16T20:18:58.000Z</time>
      </trkpt>
      <trkpt lat="43.713" lon="7.061">
        <ele>341.39999389648</ele>
        <time>2014-04-16T20:18:59.000Z</time>
      </trkpt>
      <trkpt lat="43.71426" lon="7.05967">
        <ele>355.79998779297</ele>
        <time>2014-04-16T20:19:00.000Z</time>
      </trkpt>
      <trkpt lat="43.71522" lon="7.05872">
        <ele>379.39999389648</ele>
        <time>2014-04-16T20:19:01.000Z</time>
      </trkpt>
      <trkpt lat="43.71672" lon="7.05731">
        <ele>402</ele>
        <time>2014-04-16T20:19:02.000Z</time>
      </trkpt>
      <trkpt lat="43.71685" lon="7.05804">
        <ele>411.39999389648</ele>
        <time>2014-04-16T20:19:03.000Z</time>
      </trkpt>
      <trkpt lat="43.71748" lon="7.05686">
        <ele>415.20001220703</ele>
        <time>2014-04-16T20:19:04.000Z</time>
      </trkpt>
      <trkpt lat="43.71792" lon="7.05542">
        <ele>415.20001220703</ele>
        <time>2014-04-16T20:19:05.000Z</time>
      </trkpt>
      <trkpt lat="43.71802" lon="7.0549">
        <ele>417.39999389648</ele>
        <time>2014-04-16T20:19:06.000Z</time>
      </trkpt>
      <trkpt lat="43.71835" lon="7.0543">
        <ele>428.20001220703</ele>
        <time>2014-04-16T20:19:07.000Z</time>
      </trkpt>
      <trkpt lat="43.71592" lon="7.05353">
        <ele>438.60000610352</ele>
        <time>2014-04-16T20:19:08.000Z</time>
      </trkpt>
      <trkpt lat="43.71613" lon="7.05327">
        <ele>444</ele>
        <time>2014-04-16T20:19:09.000Z</time>
      </trkpt>
      <trkpt lat="43.71514" lon="7.05211">
        <ele>457</ele>
        <time>2014-04-16T20:19:10.000Z</time>
      </trkpt>
      <trkpt lat="43.71508" lon="7.05145">
        <ele>468.39999389648</ele>
        <time>2014-04-16T20:19:11.000Z</time>
      </trkpt>
      <trkpt lat="43.7146" lon="7.05072">
        <ele>476.20001220703</ele>
        <time>2014-04-16T20:19:12.000Z</time>
      </trkpt>
      <trkpt lat="43.71354" lon="7.04868">
        <ele>495</ele>
        <time>2014-04-16T20:19:13.000Z</time>
      </trkpt>
      <trkpt lat="43.71328" lon="7.04808">
        <ele>498.60000610352</ele>
        <time>2014-04-16T20:19:14.000Z</time>
      </trkpt>
      <trkpt lat="43.71336" lon="7.04729">
        <ele>510</ele>
        <time>2014-04-16T20:19:15.000Z</time>
      </trkpt>
      <trkpt lat="43.71317" lon="7.04679">
        <ele>509.79998779297</ele>
        <time>2014-04-16T20:19:16.000Z</time>
      </trkpt>
      <trkpt lat="43.71329" lon="7.04639">
        <ele>518</ele>
        <time>2014-04-16T20:19:17.000Z</time>
      </trkpt>
      <trkpt lat="43.7127" lon="7.0446">
        <ele>524</ele>
        <time>2014-04-16T20:19:18.000Z</time>
      </trkpt>
      <trkpt lat="43.7126" lon="7.0436">
        <ele>528.40002441406</ele>
        <time>2014-04-16T20:19:19.000Z</time>
      </trkpt>
      <trkpt lat="43.71288" lon="7.04188">
        <ele>521.59997558594</ele>
        <time>2014-04-16T20:19:20.000Z</time>
      </trkpt>
      <trkpt lat="43.71419" lon="7.03791">
        <ele>568</ele>
        <time>2014-04-16T20:19:21.000Z</time>
      </trkpt>
      <trkpt lat="43.71357" lon="7.03797">
        <ele>566.40002441406</ele>
        <time>2014-04-16T20:19:22.000Z</time>
      </trkpt>
      <trkpt lat="43.71373" lon="7.03769">
        <ele>571.40002441406</ele>
        <time>2014-04-16T20:19:23.000Z</time>
      </trkpt>
      <trkpt lat="43.71333" lon="7.03765">
        <ele>574</ele>
        <time>2014-04-16T20:19:24.000Z</time>
      </trkpt>
      <trkpt lat="43.71424" lon="7.03632">
        <ele>591.79998779297</ele>
        <time>2014-04-16T20:19:25.000Z</time>
      </trkpt>
      <trkpt lat="43.71494" lon="7.03428">
        <ele>627.59997558594</ele>
        <time>2014-04-16T20:19:26.000Z</time>
      </trkpt>
      <trkpt lat="43.71503" lon="7.03272">
        <ele>663.20001220703</ele>
        <time>2014-04-16T20:19:27.000Z</time>
      </trkpt>
      <trkpt lat="43.71533" lon="7.03291">
        <ele>668</ele>
        <time>2014-04-16T20:19:28.000Z</time>
      </trkpt>
      <trkpt lat="43.71542" lon="7.03254">
        <ele>678.59997558594</ele>
        <time>2014-04-16T20:19:29.000Z</time>
      </trkpt>
      <trkpt lat="43.71595" lon="7.03327">
        <ele>682.79998779297</ele>
        <time>2014-04-16T20:19:30.000Z</time>
      </trkpt>
      <trkpt lat="43.71596" lon="7.03145">
        <ele>724.40002441406</ele>
        <time>2014-04-16T20:19:31.000Z</time>
      </trkpt>
      <trkpt lat="43.7145" lon="7.03068">
        <ele>735.59997558594</ele>
        <time>2014-04-16T20:19:32.000Z</time>
      </trkpt>
      <trkpt lat="43.71421" lon="7.03066">
        <ele>736.20001220703</ele>
        <time>2014-04-16T20:19:33.000Z</time>
      </trkpt>
      <trkpt lat="43.71381" lon="7.02961">
        <ele>747.79998779297</ele>
        <time>2014-04-16T20:19:34.000Z</time>
      </trkpt>
      <trkpt lat="43.71449" lon="7.02911">
        <ele>778.20001220703</ele>
        <time>2014-04-16T20:19:35.000Z</time>
      </trkpt>
      <trkpt lat="43.71481" lon="7.02849">
        <ele>792.79998779297</ele>
        <time>2014-04-16T20:19:36.000Z</time>
      </trkpt>
      <trkpt lat="43.71486" lon="7.02772">
        <ele>799.40002441406</ele>
        <time>2014-04-16T20:19:37.000Z</time>
      </trkpt>
      <trkpt lat="43.71547" lon="7.02767">
        <ele>819.40002441406</ele>
        <time>2014-04-16T20:19:38.000Z</time>
      </trkpt>
      <trkpt lat="43.71516" lon="7.02731">
        <ele>813</ele>
        <time>2014-04-16T20:19:39.000Z</time>
      </trkpt>
      <trkpt lat="43.71568" lon="7.02729">
        <ele>828.59997558594</ele>
        <time>2014-04-16T20:19:40.000Z</time>
      </trkpt>
      <trkpt lat="43.71539" lon="7.02679">
        <ele>822.79998779297</ele>
        <time>2014-04-16T20:19:41.000Z</time>
      </trkpt>
      <trkpt lat="43.71657" lon="7.02673">
        <ele>845</ele>
        <time>2014-04-16T20:19:42.000Z</time>
      </trkpt>
      <trkpt lat="43.71773" lon="7.02591">
        <ele>843.20001220703</ele>
        <time>2014-04-16T20:19:43.000Z</time>
      </trkpt>
      <trkpt lat="43.71804" lon="7.02478">
        <ele>840.79998779297</ele>
        <time>2014-04-16T20:19:44.000Z</time>
      </trkpt>
      <trkpt lat="43.71798" lon="7.02302">
        <ele>840</ele>
        <time>2014-04-16T20:19:45.000Z</time>
      </trkpt>
      <trkpt lat="43.71802" lon="7.02083">
        <ele>839</ele>
        <time>2014-04-16T20:19:46.000Z</time>
      </trkpt>
      <trkpt lat="43.71849" lon="7.01858">
        <ele>836.40002441406</ele>
        <time>2014-04-16T20:19:47.000Z</time>
      </trkpt>
      <trkpt lat="43.719" lon="7.01806">
        <ele>841.40002441406</ele>
        <time>2014-04-16T20:19:48.000Z</time>
      </trkpt>
      <trkpt lat="43.71925" lon="7.01757">
        <ele>845.79998779297</ele>
        <time>2014-04-16T20:19:49.000Z</time>
      </trkpt>
      <trkpt lat="43.71909" lon="7.01684">
        <ele>845.40002441406</ele>
        <time>2014-04-16T20:19:50.000Z</time>
      </trkpt>
      <trkpt lat="43.71934" lon="7.01656">
        <ele>851.59997558594</ele>
        <time>2014-04-16T20:19:51.000Z</time>
      </trkpt>
      <trkpt lat="43.71926" lon="7.0154">
        <ele>859.59997558594</ele>
        <time>2014-04-16T20:19:52.000Z</time>
      </trkpt>
      <trkpt lat="43.71956" lon="7.01512">
        <ele>863.79998779297</ele>
        <time>2014-04-16T20:19:53.000Z</time>
      </trkpt>
      <trkpt lat="43.71992" lon="7.01401">
        <ele>866.79998779297</ele>
        <time>2014-04-16T20:19:54.000Z</time>
      </trkpt>
      <trkpt lat="43.71968" lon="7.01274">
        <ele>868.59997558594</ele>
        <time>2014-04-16T20:19:55.000Z</time>
      </trkpt>
      <trkpt lat="43.7203" lon="7.01087">
        <ele>871.40002441406</ele>
        <time>2014-04-16T20:19:56.000Z</time>
      </trkpt>
      <trkpt lat="43.72066" lon="7.01162">
        <ele>875.59997558594</ele>
        <time>2014-04-16T20:19:57.000Z</time>
      </trkpt>
      <trkpt lat="43.72117" lon="7.01225">
        <ele>879.40002441406</ele>
        <time>2014-04-16T20:19:58.000Z</time>
      </trkpt>
      <trkpt lat="43.72204" lon="7.01222">
        <ele>883.79998779297</ele>
        <time>2014-04-16T20:19:59.000Z</time>
      </trkpt>
      <trkpt lat="43.72212" lon="7.01467">
        <ele>903.59997558594</ele>
        <time>2014-04-16T20:20:00.000Z</time>
      </trkpt>
      <trkpt lat="43.72271" lon="7.01424">
        <ele>912</ele>
        <time>2014-04-16T20:20:01.000Z</time>
      </trkpt>
      <trkpt lat="43.72395" lon="7.01381">
        <ele>922.20001220703</ele>
        <time>2014-04-16T20:20:02.000Z</time>
      </trkpt>
      <trkpt lat="43.72666" lon="7.01203">
        <ele>930.40002441406</ele>
        <time>2014-04-16T20:20:03.000Z</time>
      </trkpt>
      <trkpt lat="43.72838" lon="7.01396">
        <ele>921.79998779297</ele>
        <time>2014-04-16T20:20:04.000Z</time>
      </trkpt>
      <trkpt lat="43.72832" lon="7.01231">
        <ele>906.40002441406</ele>
        <time>2014-04-16T20:20:05.000Z</time>
      </trkpt>
      <trkpt lat="43.72959" lon="7.00956">
        <ele>877.20001220703</ele>
        <time>2014-04-16T20:20:06.000Z</time>
      </trkpt>
      <trkpt lat="43.73012" lon="7.01107">
        <ele>869.79998779297</ele>
        <time>2014-04-16T20:20:07.000Z</time>
      </trkpt>
      <trkpt lat="43.72998" lon="7.0116">
        <ele>871.40002441406</ele>
        <time>2014-04-16T20:20:08.000Z</time>
      </trkpt>
      <trkpt lat="43.73165" lon="7.01325">
        <ele>855.20001220703</ele>
        <time>2014-04-16T20:20:09.000Z</time>
      </trkpt>
      <trkpt lat="43.73528" lon="7.01718">
        <ele>840.20001220703</ele>
        <time>2014-04-16T20:20:10.000Z</time>
      </trkpt>
      <trkpt lat="43.73553" lon="7.01791">
        <ele>844.40002441406</ele>
        <time>2014-04-16T20:20:11.000Z</time>
      </trkpt>
      <trkpt lat="43.7359" lon="7.01778">
        <ele>836.59997558594</ele>
        <time>2014-04-16T20:20:12.000Z</time>
      </trkpt>
      <trkpt lat="43.73711" lon="7.01789">
        <ele>836</ele>
        <time>2014-04-16T20:20:13.000Z</time>
      </trkpt>
      <trkpt lat="43.73962" lon="7.0177">
        <ele>845.40002441406</ele>
        <time>2014-04-16T20:20:14.000Z</time>
      </trkpt>
      <trkpt lat="43.7411" lon="7.01813">
        <ele>858.20001220703</ele>
        <time>2014-04-16T20:20:15.000Z</time>
      </trkpt>
      <trkpt lat="43.74342" lon="7.01742">
        <ele>868.20001220703</ele>
        <time>2014-04-16T20:20:16.000Z</time>
      </trkpt>
      <trkpt lat="43.74525" lon="7.01568">
        <ele>870.40002441406</ele>
        <time>2014-04-16T20:20:17.000Z</time>
      </trkpt>
      <trkpt lat="43.74629" lon="7.01523">
        <ele>884</ele>
        <time>2014-04-16T20:20:18.000Z</time>
      </trkpt>
      <trkpt lat="43.74671" lon="7.01392">
        <ele>850.40002441406</ele>
        <time>2014-04-16T20:20:19.000Z</time>
      </trkpt>
      <trkpt lat="43.74631" lon="7.01439">
        <ele>851.79998779297</ele>
        <time>2014-04-16T20:20:20.000Z</time>
      </trkpt>
      <trkpt lat="43.74623" lon="7.01418">
        <ele>841</ele>
        <time>2014-04-16T20:20:21.000Z</time>
      </trkpt>
      <trkpt lat="43.74511" lon="7.01458">
        <ele>819.20001220703</ele>
        <time>2014-04-16T20:20:22.000Z</time>
      </trkpt>
      <trkpt lat="43.74369" lon="7.01555">
        <ele>803.20001220703</ele>
        <time>2014-04-16T20:20:23.000Z</time>
      </trkpt>
      <trkpt lat="43.74375" lon="7.01519">
        <ele>793.79998779297</ele>
        <time>2014-04-16T20:20:24.000Z</time>
      </trkpt>
      <trkpt lat="43.74351" lon="7.01516">
        <ele>787</ele>
        <time>2014-04-16T20:20:25.000Z</time>
      </trkpt>
      <trkpt lat="43.74074" lon="7.01441">
        <ele>753.79998779297</ele>
        <time>2014-04-16T20:20:26.000Z</time>
      </trkpt>
      <trkpt lat="43.73993" lon="7.01255">
        <ele>716</ele>
        <time>2014-04-16T20:20:27.000Z</time>
      </trkpt>
      <trkpt lat="43.74066" lon="7.01158">
        <ele>698.20001220703</ele>
        <time>2014-04-16T20:20:28.000Z</time>
      </trkpt>
      <trkpt lat="43.74134" lon="7.01167">
        <ele>690.20001220703</ele>
        <time>2014-04-16T20:20:29.000Z</time>
      </trkpt>
      <trkpt lat="43.74229" lon="7.01092">
        <ele>663.79998779297</ele>
        <time>2014-04-16T20:20:30.000Z</time>
      </trkpt>
      <trkpt lat="43.74241" lon="7.01034">
        <ele>654</ele>
        <time>2014-04-16T20:20:31.000Z</time>
      </trkpt>
      <trkpt lat="43.74317" lon="7.00956">
        <ele>639.79998779297</ele>
        <time>2014-04-16T20:20:32.000Z</time>
      </trkpt>
      <trkpt lat="43.74382" lon="7.00939">
        <ele>631.79998779297</ele>
        <time>2014-04-16T20:20:33.000Z</time>
      </trkpt>
      <trkpt lat="43.74511" lon="7.00961">
        <ele>631.40002441406</ele>
        <time>2014-04-16T20:20:34.000Z</time>
      </trkpt>
      <trkpt lat="43.74641" lon="7.00995">
        <ele>644</ele>
        <time>2014-04-16T20:20:35.000Z</time>
      </trkpt>
      <trkpt lat="43.74755" lon="7.00911">
        <ele>641.20001220703</ele>
        <time>2014-04-16T20:20:36.000Z</time>
      </trkpt>
      <trkpt lat="43.74925" lon="7.00894">
        <ele>664.79998779297</ele>
        <time>2014-04-16T20:20:37.000Z</time>
      </trkpt>
      <trkpt lat="43.75051" lon="7.0101">
        <ele>700.79998779297</ele>
        <time>2014-04-16T20:20:38.000Z</time>
      </trkpt>
      <trkpt lat="43.75058" lon="7.01064">
        <ele>703.20001220703</ele>
        <time>2014-04-16T20:20:39.000Z</time>
      </trkpt>
      <trkpt lat="43.75083" lon="7.01038">
        <ele>704.79998779297</ele>
        <time>2014-04-16T20:20:40.000Z</time>
      </trkpt>
      <trkpt lat="43.75119" lon="7.01072">
        <ele>710.79998779297</ele>
        <time>2014-04-16T20:20:41.000Z</time>
      </trkpt>
      <trkpt lat="43.75254" lon="7.01077">
        <ele>732.40002441406</ele>
        <time>2014-04-16T20:20:42.000Z</time>
      </trkpt>
      <trkpt lat="43.75342" lon="7.01029">
        <ele>734</ele>
        <time>2014-04-16T20:20:43.000Z</time>
      </trkpt>
      <trkpt lat="43.75399" lon="7.01062">
        <ele>735.79998779297</ele>
        <time>2014-04-16T20:20:44.000Z</time>
      </trkpt>
      <trkpt lat="43.7581" lon="7.01046">
        <ele>785.40002441406</ele>
        <time>2014-04-16T20:20:45.000Z</time>
      </trkpt>
      <trkpt lat="43.75875" lon="7.00928">
        <ele>800.79998779297</ele>
        <time>2014-04-16T20:20:46.000Z</time>
      </trkpt>
      <trkpt lat="43.75858" lon="7.00735">
        <ele>818.79998779297</ele>
        <time>2014-04-16T20:20:47.000Z</time>
      </trkpt>
      <trkpt lat="43.759" lon="7.00549">
        <ele>831.40002441406</ele>
        <time>2014-04-16T20:20:48.000Z</time>
      </trkpt>
      <trkpt lat="43.75956" lon="7.00478">
        <ele>839.79998779297</ele>
        <time>2014-04-16T20:20:49.000Z</time>
      </trkpt>
      <trkpt lat="43.76114" lon="7.00381">
        <ele>858.59997558594</ele>
        <time>2014-04-16T20:20:50.000Z</time>
      </trkpt>
      <trkpt lat="43.76162" lon="7.00293">
        <ele>864.40002441406</ele>
        <time>2014-04-16T20:20:51.000Z</time>
      </trkpt>
      <trkpt lat="43.76383" lon="7.00113">
        <ele>860.59997558594</ele>
        <time>2014-04-16T20:20:52.000Z</time>
      </trkpt>
      <trkpt lat="43.76424" lon="6.99959">
        <ele>870</ele>
        <time>2014-04-16T20:20:53.000Z</time>
      </trkpt>
      <trkpt lat="43.76493" lon="6.99971">
        <ele>869</ele>
        <time>2014-04-16T20:20:54.000Z</time>
      </trkpt>
      <trkpt lat="43.76512" lon="6.99941">
        <ele>872.40002441406</ele>
        <time>2014-04-16T20:20:55.000Z</time>
      </trkpt>
      <trkpt lat="43.76718" lon="6.99911">
        <ele>875</ele>
        <time>2014-04-16T20:20:56.000Z</time>
      </trkpt>
      <trkpt lat="43.76791" lon="6.99778">
        <ele>859.20001220703</ele>
        <time>2014-04-16T20:20:57.000Z</time>
      </trkpt>
      <trkpt lat="43.76631" lon="6.99686">
        <ele>820.79998779297</ele>
        <time>2014-04-16T20:20:58.000Z</time>
      </trkpt>
      <trkpt lat="43.76528" lon="6.99566">
        <ele>786.40002441406</ele>
        <time>2014-04-16T20:20:59.000Z</time>
      </trkpt>
      <trkpt lat="43.76582" lon="6.99525">
        <ele>767.20001220703</ele>
        <time>2014-04-16T20:21:00.000Z</time>
      </trkpt>
      <trkpt lat="43.76517" lon="6.99465">
        <ele>752.59997558594</ele>
        <time>2014-04-16T20:21:01.000Z</time>
      </trkpt>
      <trkpt lat="43.76577" lon="6.99431">
        <ele>737</ele>
        <time>2014-04-16T20:21:02.000Z</time>
      </trkpt>
      <trkpt lat="43.76518" lon="6.99399">
        <ele>729</ele>
        <time>2014-04-16T20:21:03.000Z</time>
      </trkpt>
      <trkpt lat="43.76562" lon="6.99388">
        <ele>721.59997558594</ele>
        <time>2014-04-16T20:21:04.000Z</time>
      </trkpt>
      <trkpt lat="43.76552" lon="6.99373">
        <ele>715.59997558594</ele>
        <time>2014-04-16T20:21:05.000Z</time>
      </trkpt>
      <trkpt lat="43.76585" lon="6.99371">
        <ele>714</ele>
        <time>2014-04-16T20:21:06.000Z</time>
      </trkpt>
      <trkpt lat="43.76495" lon="6.99274">
        <ele>672.79998779297</ele>
        <time>2014-04-16T20:21:07.000Z</time>
      </trkpt>
      <trkpt lat="43.76461" lon="6.99244">
        <ele>653.59997558594</ele>
        <time>2014-04-16T20:21:08.000Z</time>
      </trkpt>
      <trkpt lat="43.76492" lon="6.99158">
        <ele>633.59997558594</ele>
        <time>2014-04-16T20:21:09.000Z</time>
      </trkpt>
      <trkpt lat="43.76439" lon="6.99128">
        <ele>610.59997558594</ele>
        <time>2014-04-16T20:21:10.000Z</time>
      </trkpt>
      <trkpt lat="43.76436" lon="6.99105">
        <ele>602</ele>
        <time>2014-04-16T20:21:11.000Z</time>
      </trkpt>
      <trkpt lat="43.7643" lon="6.99081">
        <ele>593.20001220703</ele>
        <time>2014-04-16T20:21:12.000Z</time>
      </trkpt>
      <trkpt lat="43.76428" lon="6.99053">
        <ele>583.59997558594</ele>
        <time>2014-04-16T20:21:13.000Z</time>
      </trkpt>
      <trkpt lat="43.76396" lon="6.99057">
        <ele>574.59997558594</ele>
        <time>2014-04-16T20:21:14.000Z</time>
      </trkpt>
      <trkpt lat="43.76405" lon="6.99006">
        <ele>563.59997558594</ele>
        <time>2014-04-16T20:21:15.000Z</time>
      </trkpt>
      <trkpt lat="43.76314" lon="6.99075">
        <ele>543.40002441406</ele>
        <time>2014-04-16T20:21:16.000Z</time>
      </trkpt>
      <trkpt lat="43.76294" lon="6.99087">
        <ele>538.79998779297</ele>
        <time>2014-04-16T20:21:17.000Z</time>
      </trkpt>
      <trkpt lat="43.7628" lon="6.99075">
        <ele>531.40002441406</ele>
        <time>2014-04-16T20:21:18.000Z</time>
      </trkpt>
      <trkpt lat="43.76242" lon="6.99077">
        <ele>519</ele>
        <time>2014-04-16T20:21:19.000Z</time>
      </trkpt>
      <trkpt lat="43.76221" lon="6.98959">
        <ele>498.79998779297</ele>
        <time>2014-04-16T20:21:20.000Z</time>
      </trkpt>
      <trkpt lat="43.76187" lon="6.98901">
        <ele>483.20001220703</ele>
        <time>2014-04-16T20:21:21.000Z</time>
      </trkpt>
      <trkpt lat="43.76213" lon="6.98845">
        <ele>483</ele>
        <time>2014-04-16T20:21:22.000Z</time>
      </trkpt>
      <trkpt lat="43.76269" lon="6.98774">
        <ele>480</ele>
        <time>2014-04-16T20:21:23.000Z</time>
      </trkpt>
      <trkpt lat="43.76166" lon="6.98834">
        <ele>472.20001220703</ele>
        <time>2014-04-16T20:21:24.000Z</time>
      </trkpt>
      <trkpt lat="43.76126" lon="6.98819">
        <ele>490.39999389648</ele>
        <time>2014-04-16T20:21:25.000Z</time>
      </trkpt>
      <trkpt lat="43.76092" lon="6.98834">
        <ele>501.39999389648</ele>
        <time>2014-04-16T20:21:26.000Z</time>
      </trkpt>
      <trkpt lat="43.76078" lon="6.98785">
        <ele>523.59997558594</ele>
        <time>2014-04-16T20:21:27.000Z</time>
      </trkpt>
      <trkpt lat="43.76162" lon="6.98643">
        <ele>521.79998779297</ele>
        <time>2014-04-16T20:21:28.000Z</time>
      </trkpt>
      <trkpt lat="43.76241" lon="6.98609">
        <ele>523.79998779297</ele>
        <time>2014-04-16T20:21:29.000Z</time>
      </trkpt>
      <trkpt lat="43.76545" lon="6.98343">
        <ele>558</ele>
        <time>2014-04-16T20:21:30.000Z</time>
      </trkpt>
      <trkpt lat="43.76707" lon="6.98313">
        <ele>542.40002441406</ele>
        <time>2014-04-16T20:21:31.000Z</time>
      </trkpt>
      <trkpt lat="43.76909" lon="6.9815">
        <ele>553.59997558594</ele>
        <time>2014-04-16T20:21:32.000Z</time>
      </trkpt>
      <trkpt lat="43.76971" lon="6.98188">
        <ele>549</ele>
        <time>2014-04-16T20:21:33.000Z</time>
      </trkpt>
      <trkpt lat="43.77011" lon="6.98165">
        <ele>559.40002441406</ele>
        <time>2014-04-16T20:21:34.000Z</time>
      </trkpt>
      <trkpt lat="43.77181" lon="6.98184">
        <ele>555.79998779297</ele>
        <time>2014-04-16T20:21:35.000Z</time>
      </trkpt>
      <trkpt lat="43.7727" lon="6.98141">
        <ele>554.79998779297</ele>
        <time>2014-04-16T20:21:36.000Z</time>
      </trkpt>
      <trkpt lat="43.77318" lon="6.98019">
        <ele>564.40002441406</ele>
        <time>2014-04-16T20:21:37.000Z</time>
      </trkpt>
      <trkpt lat="43.77352" lon="6.97959">
        <ele>571.79998779297</ele>
        <time>2014-04-16T20:21:38.000Z</time>
      </trkpt>
      <trkpt lat="43.77343" lon="6.97939">
        <ele>583.40002441406</ele>
        <time>2014-04-16T20:21:39.000Z</time>
      </trkpt>
      <trkpt lat="43.77377" lon="6.97892">
        <ele>582.59997558594</ele>
        <time>2014-04-16T20:21:40.000Z</time>
      </trkpt>
      <trkpt lat="43.7736" lon="6.97877">
        <ele>597.20001220703</ele>
        <time>2014-04-16T20:21:41.000Z</time>
      </trkpt>
      <trkpt lat="43.77353" lon="6.97525">
        <ele>675</ele>
        <time>2014-04-16T20:21:42.000Z</time>
      </trkpt>
      <trkpt lat="43.77298" lon="6.97388">
        <ele>693.59997558594</ele>
        <time>2014-04-16T20:21:43.000Z</time>
      </trkpt>
      <trkpt lat="43.77293" lon="6.97291">
        <ele>686.79998779297</ele>
        <time>2014-04-16T20:21:44.000Z</time>
      </trkpt>
      <trkpt lat="43.77212" lon="6.97145">
        <ele>686.79998779297</ele>
        <time>2014-04-16T20:21:45.000Z</time>
      </trkpt>
      <trkpt lat="43.77259" lon="6.97137">
        <ele>685.40002441406</ele>
        <time>2014-04-16T20:21:46.000Z</time>
      </trkpt>
      <trkpt lat="43.77247" lon="6.97111">
        <ele>687.40002441406</ele>
        <time>2014-04-16T20:21:47.000Z</time>
      </trkpt>
      <trkpt lat="43.7729" lon="6.97098">
        <ele>698.20001220703</ele>
        <time>2014-04-16T20:21:48.000Z</time>
      </trkpt>
      <trkpt lat="43.77284" lon="6.97068">
        <ele>702.59997558594</ele>
        <time>2014-04-16T20:21:49.000Z</time>
      </trkpt>
      <trkpt lat="43.77322" lon="6.97081">
        <ele>709.59997558594</ele>
        <time>2014-04-16T20:21:50.000Z</time>
      </trkpt>
      <trkpt lat="43.77398" lon="6.97008">
        <ele>712.20001220703</ele>
        <time>2014-04-16T20:21:51.000Z</time>
      </trkpt>
      <trkpt lat="43.7756" lon="6.96622">
        <ele>707.79998779297</ele>
        <time>2014-04-16T20:21:52.000Z</time>
      </trkpt>
      <trkpt lat="43.77558" lon="6.965">
        <ele>709.79998779297</ele>
        <time>2014-04-16T20:21:53.000Z</time>
      </trkpt>
      <trkpt lat="43.77623" lon="6.96487">
        <ele>704</ele>
        <time>2014-04-16T20:21:54.000Z</time>
      </trkpt>
      <trkpt lat="43.77637" lon="6.96291">
        <ele>709.59997558594</ele>
        <time>2014-04-16T20:21:55.000Z</time>
      </trkpt>
      <trkpt lat="43.77615" lon="6.96225">
        <ele>710.79998779297</ele>
        <time>2014-04-16T20:21:56.000Z</time>
      </trkpt>
      <trkpt lat="43.77646" lon="6.96167">
        <ele>716.20001220703</ele>
        <time>2014-04-16T20:21:57.000Z</time>
      </trkpt>
      <trkpt lat="43.77809" lon="6.9597">
        <ele>740.20001220703</ele>
        <time>2014-04-16T20:21:58.000Z</time>
      </trkpt>
      <trkpt lat="43.77637" lon="6.95946">
        <ele>729.40002441406</ele>
        <time>2014-04-16T20:21:59.000Z</time>
      </trkpt>
      <trkpt lat="43.77549" lon="6.9586">
        <ele>735.79998779297</ele>
        <time>2014-04-16T20:22:00.000Z</time>
      </trkpt>
      <trkpt lat="43.77488" lon="6.9589">
        <ele>742.79998779297</ele>
        <time>2014-04-16T20:22:01.000Z</time>
      </trkpt>
      <trkpt lat="43.77425" lon="6.9604">
        <ele>751.59997558594</ele>
        <time>2014-04-16T20:22:02.000Z</time>
      </trkpt>
      <trkpt lat="43.77443" lon="6.96137">
        <ele>745.40002441406</ele>
        <time>2014-04-16T20:22:03.000Z</time>
      </trkpt>
      <trkpt lat="43.77394" lon="6.96281">
        <ele>750.20001220703</ele>
        <time>2014-04-16T20:22:04.000Z</time>
      </trkpt>
      <trkpt lat="43.77233" lon="6.96523">
        <ele>738.59997558594</ele>
        <time>2014-04-16T20:22:05.000Z</time>
      </trkpt>
      <trkpt lat="43.7709" lon="6.96358">
        <ele>736.59997558594</ele>
        <time>2014-04-16T20:22:06.000Z</time>
      </trkpt>
      <trkpt lat="43.77047" lon="6.96234">
        <ele>748.40002441406</ele>
        <time>2014-04-16T20:22:07.000Z</time>
      </trkpt>
      <trkpt lat="43.76988" lon="6.96356">
        <ele>753</ele>
        <time>2014-04-16T20:22:08.000Z</time>
      </trkpt>
      <trkpt lat="43.76929" lon="6.96341">
        <ele>763</ele>
        <time>2014-04-16T20:22:09.000Z</time>
      </trkpt>
      <trkpt lat="43.76876" lon="6.9657">
        <ele>776.59997558594</ele>
        <time>2014-04-16T20:22:10.000Z</time>
      </trkpt>
      <trkpt lat="43.76831" lon="6.96624">
        <ele>783</ele>
        <time>2014-04-16T20:22:11.000Z</time>
      </trkpt>
      <trkpt lat="43.76837" lon="6.9668">
        <ele>781.20001220703</ele>
        <time>2014-04-16T20:22:12.000Z</time>
      </trkpt>
      <trkpt lat="43.76718" lon="6.96976">
        <ele>804.40002441406</ele>
        <time>2014-04-16T20:22:13.000Z</time>
      </trkpt>
      <trkpt lat="43.76641" lon="6.96944">
        <ele>824.20001220703</ele>
        <time>2014-04-16T20:22:14.000Z</time>
      </trkpt>
      <trkpt lat="43.76594" lon="6.97075">
        <ele>823.20001220703</ele>
        <time>2014-04-16T20:22:15.000Z</time>
      </trkpt>
      <trkpt lat="43.76366" lon="6.97208">
        <ele>837.59997558594</ele>
        <time>2014-04-16T20:22:16.000Z</time>
      </trkpt>
      <trkpt lat="43.76304" lon="6.97193">
        <ele>849.40002441406</ele>
        <time>2014-04-16T20:22:17.000Z</time>
      </trkpt>
      <trkpt lat="43.76253" lon="6.97289">
        <ele>857.40002441406</ele>
        <time>2014-04-16T20:22:18.000Z</time>
      </trkpt>
      <trkpt lat="43.76166" lon="6.97347">
        <ele>873</ele>
        <time>2014-04-16T20:22:19.000Z</time>
      </trkpt>
      <trkpt lat="43.76125" lon="6.97298">
        <ele>880</ele>
        <time>2014-04-16T20:22:20.000Z</time>
      </trkpt>
      <trkpt lat="43.76078" lon="6.97287">
        <ele>886.79998779297</ele>
        <time>2014-04-16T20:22:21.000Z</time>
      </trkpt>
      <trkpt lat="43.76069" lon="6.97261">
        <ele>888.59997558594</ele>
        <time>2014-04-16T20:22:22.000Z</time>
      </trkpt>
      <trkpt lat="43.76021" lon="6.97236">
        <ele>895.59997558594</ele>
        <time>2014-04-16T20:22:23.000Z</time>
      </trkpt>
      <trkpt lat="43.75998" lon="6.97161">
        <ele>902</ele>
        <time>2014-04-16T20:22:24.000Z</time>
      </trkpt>
      <trkpt lat="43.75897" lon="6.97442">
        <ele>926.59997558594</ele>
        <time>2014-04-16T20:22:25.000Z</time>
      </trkpt>
      <trkpt lat="43.75875" lon="6.97414">
        <ele>931.59997558594</ele>
        <time>2014-04-16T20:22:26.000Z</time>
      </trkpt>
      <trkpt lat="43.75743" lon="6.97433">
        <ele>945</ele>
        <time>2014-04-16T20:22:27.000Z</time>
      </trkpt>
      <trkpt lat="43.75564" lon="6.97206">
        <ele>950.79998779297</ele>
        <time>2014-04-16T20:22:28.000Z</time>
      </trkpt>
      <trkpt lat="43.75387" lon="6.97223">
        <ele>952.79998779297</ele>
        <time>2014-04-16T20:22:29.000Z</time>
      </trkpt>
      <trkpt lat="43.75303" lon="6.97261">
        <ele>951.40002441406</ele>
        <time>2014-04-16T20:22:30.000Z</time>
      </trkpt>
      <trkpt lat="43.74865" lon="6.97281">
        <ele>967.40002441406</ele>
        <time>2014-04-16T20:22:31.000Z</time>
      </trkpt>
      <trkpt lat="43.74733" lon="6.97407">
        <ele>975.79998779297</ele>
        <time>2014-04-16T20:22:32.000Z</time>
      </trkpt>
      <trkpt lat="43.74582" lon="6.97585">
        <ele>995.20001220703</ele>
        <time>2014-04-16T20:22:33.000Z</time>
      </trkpt>
      <trkpt lat="43.74527" lon="6.9766">
        <ele>1010.200012207</ele>
        <time>2014-04-16T20:22:34.000Z</time>
      </trkpt>
      <trkpt lat="43.74517" lon="6.97763">
        <ele>1010.4000244141</ele>
        <time>2014-04-16T20:22:35.000Z</time>
      </trkpt>
      <trkpt lat="43.74477" lon="6.97815">
        <ele>1025.1999511719</ele>
        <time>2014-04-16T20:22:36.000Z</time>
      </trkpt>
      <trkpt lat="43.74454" lon="6.97729">
        <ele>1030.5999755859</ele>
        <time>2014-04-16T20:22:37.000Z</time>
      </trkpt>
      <trkpt lat="43.74353" lon="6.97922">
        <ele>1057</ele>
        <time>2014-04-16T20:22:38.000Z</time>
      </trkpt>
      <trkpt lat="43.74283" lon="6.97847">
        <ele>1064</ele>
        <time>2014-04-16T20:22:39.000Z</time>
      </trkpt>
      <trkpt lat="43.742" lon="6.97778">
        <ele>1072.1999511719</ele>
        <time>2014-04-16T20:22:40.000Z</time>
      </trkpt>
      <trkpt lat="43.74165" lon="6.97798">
        <ele>1069.8000488281</ele>
        <time>2014-04-16T20:22:41.000Z</time>
      </trkpt>
      <trkpt lat="43.7409" lon="6.97699">
        <ele>1066.5999755859</ele>
        <time>2014-04-16T20:22:42.000Z</time>
      </trkpt>
      <trkpt lat="43.73928" lon="6.97371">
        <ele>1045.5999755859</ele>
        <time>2014-04-16T20:22:43.000Z</time>
      </trkpt>
      <trkpt lat="43.73883" lon="6.97399">
        <ele>1037.5999755859</ele>
        <time>2014-04-16T20:22:44.000Z</time>
      </trkpt>
      <trkpt lat="43.73845" lon="6.97384">
        <ele>1037.1999511719</ele>
        <time>2014-04-16T20:22:45.000Z</time>
      </trkpt>
      <trkpt lat="43.73806" lon="6.97416">
        <ele>1033.4000244141</ele>
        <time>2014-04-16T20:22:46.000Z</time>
      </trkpt>
      <trkpt lat="43.73615" lon="6.97472">
        <ele>1029</ele>
        <time>2014-04-16T20:22:47.000Z</time>
      </trkpt>
      <trkpt lat="43.73544" lon="6.97437">
        <ele>1027.4000244141</ele>
        <time>2014-04-16T20:22:48.000Z</time>
      </trkpt>
      <trkpt lat="43.73513" lon="6.9736">
        <ele>1025.8000488281</ele>
        <time>2014-04-16T20:22:49.000Z</time>
      </trkpt>
      <trkpt lat="43.73173" lon="6.97212">
        <ele>1033.1999511719</ele>
        <time>2014-04-16T20:22:50.000Z</time>
      </trkpt>
      <trkpt lat="43.73114" lon="6.97405">
        <ele>1029.5999755859</ele>
        <time>2014-04-16T20:22:51.000Z</time>
      </trkpt>
      <trkpt lat="43.73066" lon="6.97502">
        <ele>1029</ele>
        <time>2014-04-16T20:22:52.000Z</time>
      </trkpt>
      <trkpt lat="43.73055" lon="6.97605">
        <ele>1027.4000244141</ele>
        <time>2014-04-16T20:22:53.000Z</time>
      </trkpt>
      <trkpt lat="43.73046" lon="6.97761">
        <ele>1026.1999511719</ele>
        <time>2014-04-16T20:22:54.000Z</time>
      </trkpt>
      <trkpt lat="43.73055" lon="6.97875">
        <ele>1017</ele>
        <time>2014-04-16T20:22:55.000Z</time>
      </trkpt>
      <trkpt lat="43.73035" lon="6.97944">
        <ele>1004.200012207</ele>
        <time>2014-04-16T20:22:56.000Z</time>
      </trkpt>
      <trkpt lat="43.73012" lon="6.97967">
        <ele>995.59997558594</ele>
        <time>2014-04-16T20:22:57.000Z</time>
      </trkpt>
      <trkpt lat="43.73014" lon="6.9792">
        <ele>993.40002441406</ele>
        <time>2014-04-16T20:22:58.000Z</time>
      </trkpt>
      <trkpt lat="43.73001" lon="6.97935">
        <ele>988.79998779297</ele>
        <time>2014-04-16T20:22:59.000Z</time>
      </trkpt>
      <trkpt lat="43.72987" lon="6.97901">
        <ele>983.40002441406</ele>
        <time>2014-04-16T20:23:00.000Z</time>
      </trkpt>
      <trkpt lat="43.72975" lon="6.97929">
        <ele>973.20001220703</ele>
        <time>2014-04-16T20:23:01.000Z</time>
      </trkpt>
      <trkpt lat="43.72936" lon="6.97886">
        <ele>958.79998779297</ele>
        <time>2014-04-16T20:23:02.000Z</time>
      </trkpt>
      <trkpt lat="43.72925" lon="6.97905">
        <ele>947.79998779297</ele>
        <time>2014-04-16T20:23:03.000Z</time>
      </trkpt>
      <trkpt lat="43.72908" lon="6.97914">
        <ele>936</ele>
        <time>2014-04-16T20:23:04.000Z</time>
      </trkpt>
      <trkpt lat="43.72886" lon="6.97888">
        <ele>930.40002441406</ele>
        <time>2014-04-16T20:23:05.000Z</time>
      </trkpt>
      <trkpt lat="43.72874" lon="6.97897">
        <ele>921.40002441406</ele>
        <time>2014-04-16T20:23:06.000Z</time>
      </trkpt>
      <trkpt lat="43.72631" lon="6.97618">
        <ele>864.40002441406</ele>
        <time>2014-04-16T20:23:07.000Z</time>
      </trkpt>
      <trkpt lat="43.72545" lon="6.97437">
        <ele>847.79998779297</ele>
        <time>2014-04-16T20:23:08.000Z</time>
      </trkpt>
      <trkpt lat="43.72499" lon="6.97525">
        <ele>834</ele>
        <time>2014-04-16T20:23:09.000Z</time>
      </trkpt>
      <trkpt lat="43.72506" lon="6.97551">
        <ele>832</ele>
        <time>2014-04-16T20:23:10.000Z</time>
      </trkpt>
      <trkpt lat="43.7244" lon="6.97603">
        <ele>810.59997558594</ele>
        <time>2014-04-16T20:23:11.000Z</time>
      </trkpt>
      <trkpt lat="43.7241" lon="6.97605">
        <ele>803.40002441406</ele>
        <time>2014-04-16T20:23:12.000Z</time>
      </trkpt>
      <trkpt lat="43.72341" lon="6.97482">
        <ele>791</ele>
        <time>2014-04-16T20:23:13.000Z</time>
      </trkpt>
      <trkpt lat="43.72294" lon="6.97512">
        <ele>780</ele>
        <time>2014-04-16T20:23:14.000Z</time>
      </trkpt>
      <trkpt lat="43.72238" lon="6.97495">
        <ele>770</ele>
        <time>2014-04-16T20:23:15.000Z</time>
      </trkpt>
      <trkpt lat="43.72175" lon="6.9745">
        <ele>755</ele>
        <time>2014-04-16T20:23:16.000Z</time>
      </trkpt>
      <trkpt lat="43.72182" lon="6.97397">
        <ele>753.59997558594</ele>
        <time>2014-04-16T20:23:17.000Z</time>
      </trkpt>
      <trkpt lat="43.72248" lon="6.97328">
        <ele>759.59997558594</ele>
        <time>2014-04-16T20:23:18.000Z</time>
      </trkpt>
      <trkpt lat="43.72246" lon="6.97227">
        <ele>759.79998779297</ele>
        <time>2014-04-16T20:23:19.000Z</time>
      </trkpt>
      <trkpt lat="43.72221" lon="6.96663">
        <ele>759.40002441406</ele>
        <time>2014-04-16T20:23:20.000Z</time>
      </trkpt>
      <trkpt lat="43.72227" lon="6.96609">
        <ele>761</ele>
        <time>2014-04-16T20:23:21.000Z</time>
      </trkpt>
      <trkpt lat="43.72195" lon="6.96495">
        <ele>761.20001220703</ele>
        <time>2014-04-16T20:23:22.000Z</time>
      </trkpt>
      <trkpt lat="43.72057" lon="6.96545">
        <ele>748.40002441406</ele>
        <time>2014-04-16T20:23:23.000Z</time>
      </trkpt>
      <trkpt lat="43.71995" lon="6.9621">
        <ele>767.20001220703</ele>
        <time>2014-04-16T20:23:24.000Z</time>
      </trkpt>
      <trkpt lat="43.719" lon="6.96186">
        <ele>768.59997558594</ele>
        <time>2014-04-16T20:23:25.000Z</time>
      </trkpt>
      <trkpt lat="43.71812" lon="6.96253">
        <ele>766.20001220703</ele>
        <time>2014-04-16T20:23:26.000Z</time>
      </trkpt>
      <trkpt lat="43.71759" lon="6.96418">
        <ele>771.79998779297</ele>
        <time>2014-04-16T20:23:27.000Z</time>
      </trkpt>
      <trkpt lat="43.71542" lon="6.96746">
        <ele>782</ele>
        <time>2014-04-16T20:23:28.000Z</time>
      </trkpt>
      <trkpt lat="43.71486" lon="6.96751">
        <ele>785.20001220703</ele>
        <time>2014-04-16T20:23:29.000Z</time>
      </trkpt>
      <trkpt lat="43.71447" lon="6.96716">
        <ele>784</ele>
        <time>2014-04-16T20:23:30.000Z</time>
      </trkpt>
      <trkpt lat="43.71351" lon="6.96731">
        <ele>775.40002441406</ele>
        <time>2014-04-16T20:23:31.000Z</time>
      </trkpt>
      <trkpt lat="43.71272" lon="6.96817">
        <ele>762.40002441406</ele>
        <time>2014-04-16T20:23:32.000Z</time>
      </trkpt>
      <trkpt lat="43.71173" lon="6.96843">
        <ele>748.59997558594</ele>
        <time>2014-04-16T20:23:33.000Z</time>
      </trkpt>
      <trkpt lat="43.71022" lon="6.96774">
        <ele>732.20001220703</ele>
        <time>2014-04-16T20:23:34.000Z</time>
      </trkpt>
      <trkpt lat="43.70943" lon="6.968">
        <ele>728</ele>
        <time>2014-04-16T20:23:35.000Z</time>
      </trkpt>
      <trkpt lat="43.70895" lon="6.97126">
        <ele>693.79998779297</ele>
        <time>2014-04-16T20:23:36.000Z</time>
      </trkpt>
      <trkpt lat="43.70813" lon="6.97274">
        <ele>676.20001220703</ele>
        <time>2014-04-16T20:23:37.000Z</time>
      </trkpt>
      <trkpt lat="43.70779" lon="6.97375">
        <ele>666.40002441406</ele>
        <time>2014-04-16T20:23:38.000Z</time>
      </trkpt>
      <trkpt lat="43.70766" lon="6.97439">
        <ele>664.20001220703</ele>
        <time>2014-04-16T20:23:39.000Z</time>
      </trkpt>
      <trkpt lat="43.70704" lon="6.97512">
        <ele>656.40002441406</ele>
        <time>2014-04-16T20:23:40.000Z</time>
      </trkpt>
      <trkpt lat="43.70613" lon="6.97568">
        <ele>650.59997558594</ele>
        <time>2014-04-16T20:23:41.000Z</time>
      </trkpt>
      <trkpt lat="43.70585" lon="6.9754">
        <ele>645</ele>
        <time>2014-04-16T20:23:42.000Z</time>
      </trkpt>
      <trkpt lat="43.70572" lon="6.97476">
        <ele>635.40002441406</ele>
        <time>2014-04-16T20:23:43.000Z</time>
      </trkpt>
      <trkpt lat="43.70515" lon="6.97465">
        <ele>626.40002441406</ele>
        <time>2014-04-16T20:23:44.000Z</time>
      </trkpt>
      <trkpt lat="43.70455" lon="6.97424">
        <ele>614.40002441406</ele>
        <time>2014-04-16T20:23:45.000Z</time>
      </trkpt>
      <trkpt lat="43.70386" lon="6.97433">
        <ele>605.40002441406</ele>
        <time>2014-04-16T20:23:46.000Z</time>
      </trkpt>
      <trkpt lat="43.70352" lon="6.97431">
        <ele>598.40002441406</ele>
        <time>2014-04-16T20:23:47.000Z</time>
      </trkpt>
      <trkpt lat="43.70324" lon="6.97459">
        <ele>592.59997558594</ele>
        <time>2014-04-16T20:23:48.000Z</time>
      </trkpt>
      <trkpt lat="43.70321" lon="6.97431">
        <ele>590</ele>
        <time>2014-04-16T20:23:49.000Z</time>
      </trkpt>
      <trkpt lat="43.70268" lon="6.97392">
        <ele>569</ele>
        <time>2014-04-16T20:23:50.000Z</time>
      </trkpt>
      <trkpt lat="43.70267" lon="6.96785">
        <ele>580.40002441406</ele>
        <time>2014-04-16T20:23:51.000Z</time>
      </trkpt>
      <trkpt lat="43.70276" lon="6.96721">
        <ele>591.20001220703</ele>
        <time>2014-04-16T20:23:52.000Z</time>
      </trkpt>
      <trkpt lat="43.70206" lon="6.96394">
        <ele>616.20001220703</ele>
        <time>2014-04-16T20:23:53.000Z</time>
      </trkpt>
      <trkpt lat="43.70135" lon="6.96242">
        <ele>623.20001220703</ele>
        <time>2014-04-16T20:23:54.000Z</time>
      </trkpt>
      <trkpt lat="43.70048" lon="6.96133">
        <ele>631.79998779297</ele>
        <time>2014-04-16T20:23:55.000Z</time>
      </trkpt>
      <trkpt lat="43.70002" lon="6.96128">
        <ele>628</ele>
        <time>2014-04-16T20:23:56.000Z</time>
      </trkpt>
      <trkpt lat="43.70101" lon="6.96334">
        <ele>619.20001220703</ele>
        <time>2014-04-16T20:23:57.000Z</time>
      </trkpt>
      <trkpt lat="43.70102" lon="6.96519">
        <ele>612.79998779297</ele>
        <time>2014-04-16T20:23:58.000Z</time>
      </trkpt>
      <trkpt lat="43.70039" lon="6.96678">
        <ele>597</ele>
        <time>2014-04-16T20:23:59.000Z</time>
      </trkpt>
      <trkpt lat="43.69814" lon="6.96768">
        <ele>586</ele>
        <time>2014-04-16T20:24:00.000Z</time>
      </trkpt>
      <trkpt lat="43.69656" lon="6.96678">
        <ele>579.59997558594</ele>
        <time>2014-04-16T20:24:01.000Z</time>
      </trkpt>
      <trkpt lat="43.69612" lon="6.96712">
        <ele>575</ele>
        <time>2014-04-16T20:24:02.000Z</time>
      </trkpt>
      <trkpt lat="43.69606" lon="6.96817">
        <ele>569.79998779297</ele>
        <time>2014-04-16T20:24:03.000Z</time>
      </trkpt>
      <trkpt lat="43.69584" lon="6.9689">
        <ele>561.20001220703</ele>
        <time>2014-04-16T20:24:04.000Z</time>
      </trkpt>
      <trkpt lat="43.69527" lon="6.96965">
        <ele>556.59997558594</ele>
        <time>2014-04-16T20:24:05.000Z</time>
      </trkpt>
      <trkpt lat="43.69505" lon="6.97058">
        <ele>541.79998779297</ele>
        <time>2014-04-16T20:24:06.000Z</time>
      </trkpt>
      <trkpt lat="43.69438" lon="6.97092">
        <ele>548.20001220703</ele>
        <time>2014-04-16T20:24:07.000Z</time>
      </trkpt>
      <trkpt lat="43.69383" lon="6.97143">
        <ele>541.20001220703</ele>
        <time>2014-04-16T20:24:08.000Z</time>
      </trkpt>
      <trkpt lat="43.69133" lon="6.97298">
        <ele>532.59997558594</ele>
        <time>2014-04-16T20:24:09.000Z</time>
      </trkpt>
      <trkpt lat="43.69086" lon="6.97401">
        <ele>511.79998779297</ele>
        <time>2014-04-16T20:24:10.000Z</time>
      </trkpt>
      <trkpt lat="43.68805" lon="6.97418">
        <ele>491.79998779297</ele>
        <time>2014-04-16T20:24:11.000Z</time>
      </trkpt>
      <trkpt lat="43.68722" lon="6.97506">
        <ele>476.20001220703</ele>
        <time>2014-04-16T20:24:12.000Z</time>
      </trkpt>
      <trkpt lat="43.68526" lon="6.97474">
        <ele>463.20001220703</ele>
        <time>2014-04-16T20:24:13.000Z</time>
      </trkpt>
      <trkpt lat="43.6848" lon="6.97489">
        <ele>451.20001220703</ele>
        <time>2014-04-16T20:24:14.000Z</time>
      </trkpt>
      <trkpt lat="43.68349" lon="6.97336">
        <ele>443.20001220703</ele>
        <time>2014-04-16T20:24:15.000Z</time>
      </trkpt>
      <trkpt lat="43.68258" lon="6.97244">
        <ele>427</ele>
        <time>2014-04-16T20:24:16.000Z</time>
      </trkpt>
      <trkpt lat="43.682" lon="6.97111">
        <ele>429.60000610352</ele>
        <time>2014-04-16T20:24:17.000Z</time>
      </trkpt>
      <trkpt lat="43.68082" lon="6.97173">
        <ele>415</ele>
        <time>2014-04-16T20:24:18.000Z</time>
      </trkpt>
      <trkpt lat="43.68045" lon="6.97141">
        <ele>413</ele>
        <time>2014-04-16T20:24:19.000Z</time>
      </trkpt>
      <trkpt lat="43.67912" lon="6.97324">
        <ele>409.39999389648</ele>
        <time>2014-04-16T20:24:20.000Z</time>
      </trkpt>
      <trkpt lat="43.67935" lon="6.9742">
        <ele>410.39999389648</ele>
        <time>2014-04-16T20:24:21.000Z</time>
      </trkpt>
      <trkpt lat="43.6802" lon="6.97508">
        <ele>411.79998779297</ele>
        <time>2014-04-16T20:24:22.000Z</time>
      </trkpt>
      <trkpt lat="43.68053" lon="6.97678">
        <ele>422</ele>
        <time>2014-04-16T20:24:23.000Z</time>
      </trkpt>
      <trkpt lat="43.6803" lon="6.97834">
        <ele>429.79998779297</ele>
        <time>2014-04-16T20:24:24.000Z</time>
      </trkpt>
      <trkpt lat="43.6793" lon="6.97901">
        <ele>431.79998779297</ele>
        <time>2014-04-16T20:24:25.000Z</time>
      </trkpt>
      <trkpt lat="43.67891" lon="6.98055">
        <ele>432</ele>
        <time>2014-04-16T20:24:26.000Z</time>
      </trkpt>
      <trkpt lat="43.67808" lon="6.98169">
        <ele>425.20001220703</ele>
        <time>2014-04-16T20:24:27.000Z</time>
      </trkpt>
      <trkpt lat="43.67848" lon="6.98366">
        <ele>424.79998779297</ele>
        <time>2014-04-16T20:24:28.000Z</time>
      </trkpt>
      <trkpt lat="43.67881" lon="6.98448">
        <ele>419.60000610352</ele>
        <time>2014-04-16T20:24:29.000Z</time>
      </trkpt>
      <trkpt lat="43.68006" lon="6.98386">
        <ele>426</ele>
        <time>2014-04-16T20:24:30.000Z</time>
      </trkpt>
      <trkpt lat="43.68056" lon="6.98439">
        <ele>425.39999389648</ele>
        <time>2014-04-16T20:24:31.000Z</time>
      </trkpt>
      <trkpt lat="43.67963" lon="6.98654">
        <ele>404</ele>
        <time>2014-04-16T20:24:32.000Z</time>
      </trkpt>
      <trkpt lat="43.67915" lon="6.98911">
        <ele>381.60000610352</ele>
        <time>2014-04-16T20:24:33.000Z</time>
      </trkpt>
      <trkpt lat="43.67814" lon="6.99055">
        <ele>372.79998779297</ele>
        <time>2014-04-16T20:24:34.000Z</time>
      </trkpt>
      <trkpt lat="43.67741" lon="6.99304">
        <ele>356.79998779297</ele>
        <time>2014-04-16T20:24:35.000Z</time>
      </trkpt>
      <trkpt lat="43.67687" lon="6.99502">
        <ele>360</ele>
        <time>2014-04-16T20:24:36.000Z</time>
      </trkpt>
      <trkpt lat="43.67752" lon="6.99587">
        <ele>372.20001220703</ele>
        <time>2014-04-16T20:24:37.000Z</time>
      </trkpt>
      <trkpt lat="43.67781" lon="6.99868">
        <ele>371.20001220703</ele>
        <time>2014-04-16T20:24:38.000Z</time>
      </trkpt>
      <trkpt lat="43.67877" lon="6.99813">
        <ele>370.39999389648</ele>
        <time>2014-04-16T20:24:39.000Z</time>
      </trkpt>
      <trkpt lat="43.67971" lon="6.99868">
        <ele>366</ele>
        <time>2014-04-16T20:24:40.000Z</time>
      </trkpt>
      <trkpt lat="43.68138" lon="6.99806">
        <ele>367.20001220703</ele>
        <time>2014-04-16T20:24:41.000Z</time>
      </trkpt>
      <trkpt lat="43.67989" lon="7.00184">
        <ele>354</ele>
        <time>2014-04-16T20:24:42.000Z</time>
      </trkpt>
      <trkpt lat="43.68042" lon="7.003">
        <ele>362.20001220703</ele>
        <time>2014-04-16T20:24:43.000Z</time>
      </trkpt>
      <trkpt lat="43.68171" lon="7.00371">
        <ele>370</ele>
        <time>2014-04-16T20:24:44.000Z</time>
      </trkpt>
      <trkpt lat="43.68248" lon="7.00469">
        <ele>373.60000610352</ele>
        <time>2014-04-16T20:24:45.000Z</time>
      </trkpt>
      <trkpt lat="43.68338" lon="7.00246">
        <ele>394.39999389648</ele>
        <time>2014-04-16T20:24:46.000Z</time>
      </trkpt>
      <trkpt lat="43.68422" lon="7.00188">
        <ele>402.39999389648</ele>
        <time>2014-04-16T20:24:47.000Z</time>
      </trkpt>
      <trkpt lat="43.68624" lon="7.00306">
        <ele>419.39999389648</ele>
        <time>2014-04-16T20:24:48.000Z</time>
      </trkpt>
      <trkpt lat="43.68588" lon="7.00096">
        <ele>430.20001220703</ele>
        <time>2014-04-16T20:24:49.000Z</time>
      </trkpt>
      <trkpt lat="43.68787" lon="7.0027">
        <ele>447.79998779297</ele>
        <time>2014-04-16T20:24:50.000Z</time>
      </trkpt>
      <trkpt lat="43.68871" lon="7.00411">
        <ele>435.39999389648</ele>
        <time>2014-04-16T20:24:51.000Z</time>
      </trkpt>
      <trkpt lat="43.68978" lon="7.00639">
        <ele>411.79998779297</ele>
        <time>2014-04-16T20:24:52.000Z</time>
      </trkpt>
      <trkpt lat="43.69024" lon="7.01261">
        <ele>359.20001220703</ele>
        <time>2014-04-16T20:24:53.000Z</time>
      </trkpt>
      <trkpt lat="43.69051" lon="7.01403">
        <ele>345</ele>
        <time>2014-04-16T20:24:54.000Z</time>
      </trkpt>
      <trkpt lat="43.69103" lon="7.01504">
        <ele>334.20001220703</ele>
        <time>2014-04-16T20:24:55.000Z</time>
      </trkpt>
      <trkpt lat="43.6908" lon="7.01647">
        <ele>331.39999389648</ele>
        <time>2014-04-16T20:24:56.000Z</time>
      </trkpt>
      <trkpt lat="43.69088" lon="7.01813">
        <ele>335.79998779297</ele>
        <time>2014-04-16T20:24:57.000Z</time>
      </trkpt>
      <trkpt lat="43.69099" lon="7.02021">
        <ele>339.79998779297</ele>
        <time>2014-04-16T20:24:58.000Z</time>
      </trkpt>
      <trkpt lat="43.69263" lon="7.02446">
        <ele>324</ele>
        <time>2014-04-16T20:24:59.000Z</time>
      </trkpt>
      <trkpt lat="43.68807" lon="7.03164">
        <ele>289.20001220703</ele>
        <time>2014-04-16T20:25:00.000Z</time>
      </trkpt>
      <trkpt lat="43.68728" lon="7.03171">
        <ele>281.20001220703</ele>
        <time>2014-04-16T20:25:01.000Z</time>
      </trkpt>
      <trkpt lat="43.68748" lon="7.03291">
        <ele>271.39999389648</ele>
        <time>2014-04-16T20:25:02.000Z</time>
      </trkpt>
      <trkpt lat="43.6857" lon="7.03574">
        <ele>254</ele>
        <time>2014-04-16T20:25:03.000Z</time>
      </trkpt>
      <trkpt lat="43.68889" lon="7.04111">
        <ele>266.39999389648</ele>
        <time>2014-04-16T20:25:04.000Z</time>
      </trkpt>
      <trkpt lat="43.68531" lon="7.04593">
        <ele>255.39999389648</ele>
        <time>2014-04-16T20:25:05.000Z</time>
      </trkpt>
      <trkpt lat="43.6854" lon="7.0504">
        <ele>237</ele>
        <time>2014-04-16T20:25:06.000Z</time>
      </trkpt>
      <trkpt lat="43.68402" lon="7.05083">
        <ele>234.19999694824</ele>
        <time>2014-04-16T20:25:07.000Z</time>
      </trkpt>
      <trkpt lat="43.68329" lon="7.05231">
        <ele>227.80000305176</ele>
        <time>2014-04-16T20:25:08.000Z</time>
      </trkpt>
      <trkpt lat="43.683" lon="7.05265">
        <ele>219.80000305176</ele>
        <time>2014-04-16T20:25:09.000Z</time>
      </trkpt>
      <trkpt lat="43.6823" lon="7.05244">
        <ele>211.60000610352</ele>
        <time>2014-04-16T20:25:10.000Z</time>
      </trkpt>
      <trkpt lat="43.68129" lon="7.05153">
        <ele>200.19999694824</ele>
        <time>2014-04-16T20:25:11.000Z</time>
      </trkpt>
      <trkpt lat="43.6805" lon="7.05132">
        <ele>198</ele>
        <time>2014-04-16T20:25:12.000Z</time>
      </trkpt>
      <trkpt lat="43.68013" lon="7.0513">
        <ele>199</ele>
        <time>2014-04-16T20:25:13.000Z</time>
      </trkpt>
      <trkpt lat="43.67938" lon="7.05263">
        <ele>211</ele>
        <time>2014-04-16T20:25:14.000Z</time>
      </trkpt>
      <trkpt lat="43.67936" lon="7.05422">
        <ele>224.60000610352</ele>
        <time>2014-04-16T20:25:15.000Z</time>
      </trkpt>
      <trkpt lat="43.67882" lon="7.0569">
        <ele>236</ele>
        <time>2014-04-16T20:25:16.000Z</time>
      </trkpt>
      <trkpt lat="43.67947" lon="7.05995">
        <ele>230.60000610352</ele>
        <time>2014-04-16T20:25:17.000Z</time>
      </trkpt>
      <trkpt lat="43.68013" lon="7.06164">
        <ele>242</ele>
        <time>2014-04-16T20:25:18.000Z</time>
      </trkpt>
      <trkpt lat="43.68065" lon="7.06226">
        <ele>244</ele>
        <time>2014-04-16T20:25:19.000Z</time>
      </trkpt>
      <trkpt lat="43.6811" lon="7.06336">
        <ele>249.60000610352</ele>
        <time>2014-04-16T20:25:20.000Z</time>
      </trkpt>
      <trkpt lat="43.68096" lon="7.06452">
        <ele>250</ele>
        <time>2014-04-16T20:25:21.000Z</time>
      </trkpt>
      <trkpt lat="43.68016" lon="7.06634">
        <ele>243.19999694824</ele>
        <time>2014-04-16T20:25:22.000Z</time>
      </trkpt>
      <trkpt lat="43.68048" lon="7.06694">
        <ele>236</ele>
        <time>2014-04-16T20:25:23.000Z</time>
      </trkpt>
      <trkpt lat="43.68135" lon="7.06722">
        <ele>228.60000610352</ele>
        <time>2014-04-16T20:25:24.000Z</time>
      </trkpt>
      <trkpt lat="43.68149" lon="7.06868">
        <ele>209.39999389648</ele>
        <time>2014-04-16T20:25:25.000Z</time>
      </trkpt>
      <trkpt lat="43.68306" lon="7.06904">
        <ele>185.60000610352</ele>
        <time>2014-04-16T20:25:26.000Z</time>
      </trkpt>
      <trkpt lat="43.68157" lon="7.06956">
        <ele>189.80000305176</ele>
        <time>2014-04-16T20:25:27.000Z</time>
      </trkpt>
      <trkpt lat="43.67974" lon="7.06952">
        <ele>192</ele>
        <time>2014-04-16T20:25:28.000Z</time>
      </trkpt>
      <trkpt lat="43.67795" lon="7.06937">
        <ele>193.80000305176</ele>
        <time>2014-04-16T20:25:29.000Z</time>
      </trkpt>
      <trkpt lat="43.67803" lon="7.06969">
        <ele>189.19999694824</ele>
        <time>2014-04-16T20:25:30.000Z</time>
      </trkpt>
      <trkpt lat="43.6786" lon="7.06995">
        <ele>184.60000610352</ele>
        <time>2014-04-16T20:25:31.000Z</time>
      </trkpt>
      <trkpt lat="43.67991" lon="7.07059">
        <ele>169.39999389648</ele>
        <time>2014-04-16T20:25:32.000Z</time>
      </trkpt>
      <trkpt lat="43.67926" lon="7.0711">
        <ele>161.39999389648</ele>
        <time>2014-04-16T20:25:33.000Z</time>
      </trkpt>
      <trkpt lat="43.67839" lon="7.07196">
        <ele>152.60000610352</ele>
        <time>2014-04-16T20:25:34.000Z</time>
      </trkpt>
      <trkpt lat="43.67715" lon="7.07267">
        <ele>136.19999694824</ele>
        <time>2014-04-16T20:25:35.000Z</time>
      </trkpt>
      <trkpt lat="43.67651" lon="7.07314">
        <ele>124.59999847412</ele>
        <time>2014-04-16T20:25:36.000Z</time>
      </trkpt>
      <trkpt lat="43.67615" lon="7.07389">
        <ele>119.80000305176</ele>
        <time>2014-04-16T20:25:37.000Z</time>
      </trkpt>
      <trkpt lat="43.6758" lon="7.07432">
        <ele>119.80000305176</ele>
        <time>2014-04-16T20:25:38.000Z</time>
      </trkpt>
      <trkpt lat="43.6757" lon="7.07598">
        <ele>125.19999694824</ele>
        <time>2014-04-16T20:25:39.000Z</time>
      </trkpt>
      <trkpt lat="43.67413" lon="7.07726">
        <ele>150</ele>
        <time>2014-04-16T20:25:40.000Z</time>
      </trkpt>
      <trkpt lat="43.67556" lon="7.07767">
        <ele>151.60000610352</ele>
        <time>2014-04-16T20:25:41.000Z</time>
      </trkpt>
      <trkpt lat="43.6766" lon="7.07819">
        <ele>152.60000610352</ele>
        <time>2014-04-16T20:25:42.000Z</time>
      </trkpt>
      <trkpt lat="43.67721" lon="7.07922">
        <ele>147</ele>
        <time>2014-04-16T20:25:43.000Z</time>
      </trkpt>
      <trkpt lat="43.67742" lon="7.08059">
        <ele>139.60000610352</ele>
        <time>2014-04-16T20:25:44.000Z</time>
      </trkpt>
      <trkpt lat="43.67926" lon="7.08445">
        <ele>84.199996948242</ele>
        <time>2014-04-16T20:25:45.000Z</time>
      </trkpt>
      <trkpt lat="43.6786" lon="7.08458">
        <ele>93</ele>
        <time>2014-04-16T20:25:46.000Z</time>
      </trkpt>
      <trkpt lat="43.67674" lon="7.08589">
        <ele>96.400001525879</ele>
        <time>2014-04-16T20:25:47.000Z</time>
      </trkpt>
      <trkpt lat="43.67632" lon="7.08692">
        <ele>104.80000305176</ele>
        <time>2014-04-16T20:25:48.000Z</time>
      </trkpt>
      <trkpt lat="43.67569" lon="7.08771">
        <ele>113.40000152588</ele>
        <time>2014-04-16T20:25:49.000Z</time>
      </trkpt>
      <trkpt lat="43.67465" lon="7.08838">
        <ele>121</ele>
        <time>2014-04-16T20:25:50.000Z</time>
      </trkpt>
      <trkpt lat="43.67434" lon="7.08982">
        <ele>122</ele>
        <time>2014-04-16T20:25:51.000Z</time>
      </trkpt>
      <trkpt lat="43.67308" lon="7.09155">
        <ele>119.80000305176</ele>
        <time>2014-04-16T20:25:52.000Z</time>
      </trkpt>
      <trkpt lat="43.67129" lon="7.09263">
        <ele>122.59999847412</ele>
        <time>2014-04-16T20:25:53.000Z</time>
      </trkpt>
      <trkpt lat="43.67005" lon="7.09286">
        <ele>117.59999847412</ele>
        <time>2014-04-16T20:25:54.000Z</time>
      </trkpt>
      <trkpt lat="43.66926" lon="7.09336">
        <ele>112.80000305176</ele>
        <time>2014-04-16T20:25:55.000Z</time>
      </trkpt>
      <trkpt lat="43.6688" lon="7.09466">
        <ele>107.59999847412</ele>
        <time>2014-04-16T20:25:56.000Z</time>
      </trkpt>
      <trkpt lat="43.66754" lon="7.0961">
        <ele>98</ele>
        <time>2014-04-16T20:25:57.000Z</time>
      </trkpt>
      <trkpt lat="43.66687" lon="7.09793">
        <ele>86.400001525879</ele>
        <time>2014-04-16T20:25:58.000Z</time>
      </trkpt>
      <trkpt lat="43.66653" lon="7.09994">
        <ele>73.599998474121</ele>
        <time>2014-04-16T20:25:59.000Z</time>
      </trkpt>
      <trkpt lat="43.667" lon="7.10241">
        <ele>51.400001525879</ele>
        <time>2014-04-16T20:26:00.000Z</time>
      </trkpt>
      <trkpt lat="43.66797" lon="7.10351">
        <ele>38.400001525879</ele>
        <time>2014-04-16T20:26:01.000Z</time>
      </trkpt>
      <trkpt lat="43.66799" lon="7.10419">
        <ele>39</ele>
        <time>2014-04-16T20:26:02.000Z</time>
      </trkpt>
      <trkpt lat="43.66873" lon="7.10406">
        <ele>28.799999237061</ele>
        <time>2014-04-16T20:26:03.000Z</time>
      </trkpt>
      <trkpt lat="43.66935" lon="7.10458">
        <ele>24.60000038147</ele>
        <time>2014-04-16T20:26:04.000Z</time>
      </trkpt>
      <trkpt lat="43.66799" lon="7.10973">
        <ele>27.60000038147</ele>
        <time>2014-04-16T20:26:05.000Z</time>
      </trkpt>
      <trkpt lat="43.66676" lon="7.11132">
        <ele>23.60000038147</ele>
        <time>2014-04-16T20:26:06.000Z</time>
      </trkpt>
      <trkpt lat="43.66523" lon="7.11211">
        <ele>30.39999961853</ele>
        <time>2014-04-16T20:26:07.000Z</time>
      </trkpt>
      <trkpt lat="43.66372" lon="7.11342">
        <ele>25.60000038147</ele>
        <time>2014-04-16T20:26:08.000Z</time>
      </trkpt>
      <trkpt lat="43.66097" lon="7.11494">
        <ele>25.39999961853</ele>
        <time>2014-04-16T20:26:09.000Z</time>
      </trkpt>
      <trkpt lat="43.65849" lon="7.11956">
        <ele>13.39999961853</ele>
        <time>2014-04-16T20:26:10.000Z</time>
      </trkpt>
    </trkseg>
  </trk>
</gpx>